sensor_id;sensor_type;location;lat;lon;timestamp;P1;P2;P0
77354;PMS7003;66422;51.202;19.936;2024-01-27T00:10:11;3.00;2.00;1.00
77354;PMS7003;66422;51.202;19.936;2024-01-27T00:25:31;1.00;0.00;0.00
77354;PMS7003;66422;51.202;19.936;2024-01-27T00:40:50;4.00;0.00;0.00
77354;PMS7003;66422;51.202;19.936;2024-01-27T00:56:10;1.00;1.00;0.67
77354;PMS7003;66422;51.202;19.936;2024-01-27T01:11:30;2.67;0.67;0.33
77354;PMS7003;66422;51.202;19.936;2024-01-27T01:26:49;5.00;0.50;0.00
77354;PMS7003;66422;51.202;19.936;2024-01-27T01:42:09;4.67;1.67;0.33
77354;PMS7003;66422;51.202;19.936;2024-01-27T01:57:29;2.00;1.00;1.00
77354;PMS7003;66422;51.202;19.936;2024-01-27T02:12:49;3.00;0.33;0.33
77354;PMS7003;66422;51.202;19.936;2024-01-27T02:28:08;4.00;1.67;1.00
77354;PMS7003;66422;51.202;19.936;2024-01-27T02:43:28;4.00;1.00;1.00
77354;PMS7003;66422;51.202;19.936;2024-01-27T02:58:47;5.00;0.00;0.00
77354;PMS7003;66422;51.202;19.936;2024-01-27T03:14:07;4.25;0.00;0.00
77354;PMS7003;66422;51.202;19.936;2024-01-27T03:29:27;2.00;1.00;0.00
77354;PMS7003;66422;51.202;19.936;2024-01-27T03:44:47;2.00;2.00;1.00
77354;PMS7003;66422;51.202;19.936;2024-01-27T04:00:07;1.00;1.00;-1.00
77354;PMS7003;66422;51.202;19.936;2024-01-27T04:15:27;4.00;1.00;1.00
77354;PMS7003;66422;51.202;19.936;2024-01-27T04:30:47;2.33;0.00;0.00
77354;PMS7003;66422;51.202;19.936;2024-01-27T04:46:07;2.00;0.00;0.00
77354;PMS7003;66422;51.202;19.936;2024-01-27T05:01:27;3.00;1.00;0.00
77354;PMS7003;66422;51.202;19.936;2024-01-27T05:16:46;2.67;1.00;0.33
77354;PMS7003;66422;51.202;19.936;2024-01-27T05:32:06;7.00;1.00;0.67
77354;PMS7003;66422;51.202;19.936;2024-01-27T05:47:25;1.00;1.00;0.00
77354;PMS7003;66422;51.202;19.936;2024-01-27T06:02:45;8.00;1.00;1.00
77354;PMS7003;66422;51.202;19.936;2024-01-27T06:18:05;2.67;1.00;1.33
77354;PMS7003;66422;51.202;19.936;2024-01-27T06:33:25;1.00;1.00;1.00
77354;PMS7003;66422;51.202;19.936;2024-01-27T06:48:45;11.00;1.00;1.00
77354;PMS7003;66422;51.202;19.936;2024-01-27T07:04:04;2.00;2.00;1.33
77354;PMS7003;66422;51.202;19.936;2024-01-27T07:19:24;8.00;2.50;1.50
77354;PMS7003;66422;51.202;19.936;2024-01-27T07:34:44;8.67;2.00;1.00
77354;PMS7003;66422;51.202;19.936;2024-01-27T07:50:04;5.00;4.00;1.00
77354;PMS7003;66422;51.202;19.936;2024-01-27T08:05:24;13.00;2.00;1.00
77354;PMS7003;66422;51.202;19.936;2024-01-27T08:20:43;2.25;2.25;1.75
77354;PMS7003;66422;51.202;19.936;2024-01-27T08:36:03;15.00;4.00;3.00
77354;PMS7003;66422;51.202;19.936;2024-01-27T08:51:23;12.67;4.00;2.00
77354;PMS7003;66422;51.202;19.936;2024-01-27T09:06:42;4.00;4.00;4.00
77354;PMS7003;66422;51.202;19.936;2024-01-27T09:22:02;8.00;7.00;4.50
77354;PMS7003;66422;51.202;19.936;2024-01-27T09:37:22;10.00;5.00;4.00
77354;PMS7003;66422;51.202;19.936;2024-01-27T09:52:42;11.00;8.00;5.00
77354;PMS7003;66422;51.202;19.936;2024-01-27T10:08:01;4.00;2.00;1.00
77354;PMS7003;66422;51.202;19.936;2024-01-27T10:23:21;11.00;4.00;4.00
77354;PMS7003;66422;51.202;19.936;2024-01-27T10:38:41;7.00;5.00;4.00
77354;PMS7003;66422;51.202;19.936;2024-01-27T10:54:03;4.50;4.00;1.50
77354;PMS7003;66422;51.202;19.936;2024-01-27T11:09:22;7.33;5.67;3.67
77354;PMS7003;66422;51.202;19.936;2024-01-27T11:24:44;10.67;4.67;4.00
77354;PMS7003;66422;51.202;19.936;2024-01-27T11:40:06;12.00;6.50;5.00
77354;PMS7003;66422;51.202;19.936;2024-01-27T11:55:26;7.00;4.25;4.00
77354;PMS7003;66422;51.202;19.936;2024-01-27T12:10:46;10.67;6.33;4.67
77354;PMS7003;66422;51.202;19.936;2024-01-27T12:26:06;7.00;4.00;1.00
77354;PMS7003;66422;51.202;19.936;2024-01-27T12:41:27;6.00;5.00;4.00
77354;PMS7003;66422;51.202;19.936;2024-01-27T12:56:48;7.50;4.00;3.00
77354;PMS7003;66422;51.202;19.936;2024-01-27T13:12:08;7.00;7.00;4.50
77354;PMS7003;66422;51.202;19.936;2024-01-27T13:27:28;7.50;3.00;2.00
77354;PMS7003;66422;51.202;19.936;2024-01-27T13:42:47;6.33;4.00;2.00
77354;PMS7003;66422;51.202;19.936;2024-01-27T13:58:07;11.00;4.33;2.00
77354;PMS7003;66422;51.202;19.936;2024-01-27T14:13:26;9.33;7.33;4.67
77354;PMS7003;66422;51.202;19.936;2024-01-27T14:28:46;7.50;7.00;5.00
77354;PMS7003;66422;51.202;19.936;2024-01-27T14:44:06;11.50;9.00;5.00
77354;PMS7003;66422;51.202;19.936;2024-01-27T14:59:25;12.00;6.00;5.00
77354;PMS7003;66422;51.202;19.936;2024-01-27T15:14:45;10.50;10.00;8.00
77354;PMS7003;66422;51.202;19.936;2024-01-27T15:30:05;13.50;11.50;10.00
77354;PMS7003;66422;51.202;19.936;2024-01-27T15:45:26;10.50;8.00;6.00
77354;PMS7003;66422;51.202;19.936;2024-01-27T16:00:47;18.00;11.00;10.00
77354;PMS7003;66422;51.202;19.936;2024-01-27T16:16:06;13.00;10.50;8.00
77354;PMS7003;66422;51.202;19.936;2024-01-27T16:31:26;18.00;16.50;13.00
77354;PMS7003;66422;51.202;19.936;2024-01-27T16:46:46;18.67;13.67;9.33
77354;PMS7003;66422;51.202;19.936;2024-01-27T17:02:06;19.50;12.00;8.00
77354;PMS7003;66422;51.202;19.936;2024-01-27T17:17:27;37.00;20.00;14.00
77354;PMS7003;66422;51.202;19.936;2024-01-27T17:32:47;24.50;17.25;13.00
77354;PMS7003;66422;51.202;19.936;2024-01-27T17:48:07;32.00;21.67;15.33
77354;PMS7003;66422;51.202;19.936;2024-01-27T18:03:26;22.67;17.33;14.00
77354;PMS7003;66422;51.202;19.936;2024-01-27T18:18:46;22.50;19.00;14.50
77354;PMS7003;66422;51.202;19.936;2024-01-27T18:34:07;27.50;18.50;14.00
77354;PMS7003;66422;51.202;19.936;2024-01-27T18:49:27;24.50;20.00;12.00
77354;PMS7003;66422;51.202;19.936;2024-01-27T19:04:47;26.00;13.00;8.67
77354;PMS7003;66422;51.202;19.936;2024-01-27T19:20:07;27.00;13.00;9.00
77354;PMS7003;66422;51.202;19.936;2024-01-27T19:35:27;37.00;19.50;10.00
77354;PMS7003;66422;51.202;19.936;2024-01-27T19:50:46;15.00;10.00;7.00
77354;PMS7003;66422;51.202;19.936;2024-01-27T20:06:06;12.25;9.25;6.25
77354;PMS7003;66422;51.202;19.936;2024-01-27T20:21:25;11.00;9.33;7.67
77354;PMS7003;66422;51.202;19.936;2024-01-27T20:36:45;27.00;9.00;6.00
77354;PMS7003;66422;51.202;19.936;2024-01-27T20:52:06;7.00;7.00;6.33
77354;PMS7003;66422;51.202;19.936;2024-01-27T21:07:26;19.00;10.00;7.00
77354;PMS7003;66422;51.202;19.936;2024-01-27T21:22:47;6.00;4.00;3.00
77354;PMS7003;66422;51.202;19.936;2024-01-27T21:38:07;23.67;10.33;8.33
77354;PMS7003;66422;51.202;19.936;2024-01-27T21:53:27;27.00;13.00;10.00
77354;PMS7003;66422;51.202;19.936;2024-01-27T22:08:47;23.25;13.25;7.25
77354;PMS7003;66422;51.202;19.936;2024-01-27T22:24:08;15.00;10.00;6.50
77354;PMS7003;66422;51.202;19.936;2024-01-27T22:39:28;16.00;10.00;7.00
77354;PMS7003;66422;51.202;19.936;2024-01-27T22:54:49;19.00;10.00;7.00
77354;PMS7003;66422;51.202;19.936;2024-01-27T23:10:10;16.00;8.00;4.00
77354;PMS7003;66422;51.202;19.936;2024-01-27T23:25:30;19.33;11.33;7.00
77354;PMS7003;66422;51.202;19.936;2024-01-27T23:40:49;15.75;8.00;6.00
77354;PMS7003;66422;51.202;19.936;2024-01-27T23:56:09;10.00;4.00;3.00
